Terminal Aerodrome Forecast
Issued by NWS Wilmington, OH

Current Version | Previous Version | Graphics & Text | Print | Product List | Glossary On
Versions: 1 2 3 4 5 6 7 8 9 10 11 12 13 14 15 16 17 18 19 20 21 22 23
000
FTUS41 KILN 290257 AAA
TAFCVG
TAF AMD
KCVG 290257Z 2903/3006 12004KT P6SM BKN250
     FM291400 20006KT P6SM SCT040 BKN200
     FM291600 21008KT P6SM BKN040
     FM300000 16004KT P6SM BKN040=

USA.gov is the U.S. government's official web portal to all federal, state and local government web resources and services.